Time;durP1;ratioP1;P1;durP2;ratioP2;P2;SDS_P1;SDS_P2;PMS_P1;PMS_P2;Temp;Humidity;BMP_temperature;BMP_pressure;BME280_temperature;BME280_humidity;BME280_pressure;Samples;Min_cycle;Max_cycle;Signal;HPM_P1;HPM_P2
2023/09/27 00:01:16;;;;;;;47.10;28.10;;;;;;;15.14;100.00;99708.27;109344;1254;59294;-79
2023/09/27 00:03:43;;;;;;;30.80;27.80;;;;;;;15.11;100.00;99711.73;109355;1254;65807;-78
2023/09/27 00:06:09;;;;;;;33.30;29.90;;;;;;;15.08;100.00;99710.36;109350;1255;59020;-78
2023/09/27 00:08:36;;;;;;;41.50;30.80;;;;;;;15.07;100.00;99712.79;109342;1254;62684;-78
2023/09/27 00:11:02;;;;;;;75.30;30.90;;;;;;;15.04;100.00;99710.86;109328;1254;59118;-78
2023/09/27 00:13:29;;;;;;;43.60;33.20;;;;;;;15.02;100.00;99713.34;109369;1254;58984;-78
2023/09/27 00:15:55;;;;;;;39.90;28.90;;;;;;;15.00;100.00;99714.59;109372;1254;66195;-78
2023/09/27 00:18:22;;;;;;;30.80;27.50;;;;;;;14.94;100.00;99715.34;109571;1251;60278;-78
2023/09/27 00:20:49;;;;;;;152.00;32.20;;;;;;;14.90;100.00;99715.40;109625;1251;64322;-78
2023/09/27 00:23:15;;;;;;;160.50;35.80;;;;;;;14.88;100.00;99712.20;109561;1251;58965;-78
2023/09/27 00:25:42;;;;;;;140.10;35.70;;;;;;;14.85;100.00;99712.38;109593;1251;58974;-78
2023/09/27 00:28:08;;;;;;;164.80;35.00;;;;;;;14.83;100.00;99707.19;109614;1251;59221;-78
2023/09/27 00:30:35;;;;;;;116.50;37.40;;;;;;;14.80;100.00;99705.41;109587;1251;59036;-78
2023/09/27 00:33:01;;;;;;;42.10;32.30;;;;;;;14.77;100.00;99707.08;109618;1251;59069;-78
2023/09/27 00:35:28;;;;;;;67.30;34.00;;;;;;;14.75;100.00;99708.19;109595;1251;59260;-78
2023/09/27 00:37:54;;;;;;;29.90;26.70;;;;;;;14.72;100.00;99709.80;109661;1251;59051;-78
2023/09/27 00:40:23;;;;;;;47.50;27.30;;;;;;;14.67;100.00;99704.63;109613;1251;59004;-78
2023/09/27 00:42:49;;;;;;;109.50;29.50;;;;;;;14.62;100.00;99707.08;109664;1251;59907;-78
2023/09/27 00:45:17;;;;;;;107.70;34.20;;;;;;;14.58;100.00;99705.42;109550;1251;62903;-78
2023/09/27 00:47:45;;;;;;;76.40;38.50;;;;;;;14.57;100.00;99703.34;109248;1251;58980;-78
2023/09/27 00:50:12;;;;;;;45.50;38.10;;;;;;;14.59;100.00;99703.73;109522;1251;59156;-78
2023/09/27 00:52:40;;;;;;;44.60;35.70;;;;;;;14.61;100.00;99703.48;109531;1251;65710;-78
2023/09/27 00:55:12;;;;;;;38.90;31.90;;;;;;;14.59;100.00;99700.01;109573;1250;60076;-78
2023/09/27 00:57:40;;;;;;;67.10;34.20;;;;;;;14.57;100.00;99699.27;109389;1251;62794;-78
2023/09/27 01:00:10;;;;;;;36.50;32.70;;;;;;;14.56;100.00;99703.80;109569;1251;58943;-78
2023/09/27 01:02:38;;;;;;;38.00;32.20;;;;;;;14.55;100.00;99701.75;109584;1251;59035;-78
2023/09/27 01:05:08;;;;;;;36.80;31.90;;;;;;;14.53;100.00;99705.77;109631;1251;64819;-78
2023/09/27 01:07:37;;;;;;;31.70;28.30;;;;;;;14.53;100.00;99708.11;109619;1251;67854;-78
2023/09/27 01:10:04;;;;;;;27.90;25.00;;;;;;;14.49;100.00;99706.02;109456;1251;64013;-78
2023/09/27 01:12:30;;;;;;;28.70;25.70;;;;;;;14.43;100.00;99710.74;109569;1251;58920;-78
2023/09/27 01:14:57;;;;;;;26.20;23.50;;;;;;;14.37;100.00;99714.94;109615;1251;59005;-78
2023/09/27 01:17:24;;;;;;;29.30;25.60;;;;;;;14.33;100.00;99709.73;109583;1250;64825;-78
2023/09/27 01:19:50;;;;;;;27.50;24.80;;;;;;;14.26;100.00;99711.98;109602;1251;58989;-78
2023/09/27 01:22:16;;;;;;;25.60;23.10;;;;;;;14.19;100.00;99711.71;109617;1251;58992;-78
2023/09/27 01:24:44;;;;;;;32.20;27.40;;;;;;;14.13;100.00;99710.73;109613;1251;58974;-78
2023/09/27 01:27:13;;;;;;;35.00;29.00;;;;;;;14.07;100.00;99708.34;109644;1251;58907;-78
2023/09/27 01:29:40;;;;;;;31.00;27.80;;;;;;;14.04;100.00;99709.77;109510;1253;66055;-80
2023/09/27 01:32:07;;;;;;;32.50;28.00;;;;;;;14.01;100.00;99707.28;109544;1252;60246;-78
2023/09/27 01:34:33;;;;;;;34.40;26.50;;;;;;;14.00;100.00;99705.93;109508;1252;73789;-78
2023/09/27 01:37:00;;;;;;;28.30;25.50;;;;;;;13.97;100.00;99713.27;109384;1251;59089;-79
2023/09/27 01:39:28;;;;;;;30.80;26.90;;;;;;;13.92;100.00;99711.83;109530;1255;59117;-78
2023/09/27 01:41:54;;;;;;;32.60;27.50;;;;;;;13.89;100.00;99710.65;109488;1253;64841;-78
2023/09/27 01:44:21;;;;;;;26.80;23.90;;;;;;;13.86;100.00;99707.45;109538;1252;58922;-78
2023/09/27 01:46:47;;;;;;;30.50;27.20;;;;;;;13.80;100.00;99705.52;109499;1253;58999;-78
2023/09/27 01:49:13;;;;;;;27.00;24.30;;;;;;;13.75;100.00;99705.87;109525;1252;59000;-78
2023/09/27 01:51:40;;;;;;;25.80;22.90;;;;;;;13.71;100.00;99712.24;109539;1252;59068;-78
2023/09/27 01:54:06;;;;;;;21.40;19.40;;;;;;;13.66;100.00;99712.58;109532;1252;59051;-78
2023/09/27 01:56:33;;;;;;;52.60;20.80;;;;;;;13.60;100.00;99713.16;109519;1255;58921;-78
2023/09/27 01:59:00;;;;;;;24.70;21.00;;;;;;;13.51;100.00;99714.66;109604;1251;64106;-78
2023/09/27 02:01:26;;;;;;;22.10;19.80;;;;;;;13.42;100.00;99714.92;109482;1253;58940;-78
2023/09/27 02:03:53;;;;;;;22.10;20.00;;;;;;;13.34;100.00;99712.21;109556;1251;59036;-79
2023/09/27 02:06:19;;;;;;;21.60;19.40;;;;;;;13.27;100.00;99712.30;109481;1251;65914;-78
2023/09/27 02:08:46;;;;;;;29.90;20.60;;;;;;;13.25;100.00;99713.34;109554;1252;59901;-78
2023/09/27 02:11:14;;;;;;;25.50;20.60;;;;;;;13.24;100.00;99708.58;109349;1251;59024;-78
2023/09/27 02:13:41;;;;;;;24.20;21.90;;;;;;;13.24;100.00;99709.31;109542;1251;58978;-78
2023/09/27 02:16:07;;;;;;;33.10;22.20;;;;;;;13.23;100.00;99709.74;109530;1252;58869;-78
2023/09/27 02:18:33;;;;;;;29.00;24.80;;;;;;;13.21;100.00;99709.52;109599;1252;59259;-78
2023/09/27 02:21:01;;;;;;;23.20;20.90;;;;;;;13.20;100.00;99709.41;109587;1252;59003;-77
2023/09/27 02:23:28;;;;;;;52.90;27.10;;;;;;;13.20;100.00;99709.05;109522;1253;64166;-78
2023/09/27 02:25:58;;;;;;;35.90;25.70;;;;;;;13.24;100.00;99708.97;109518;1253;58928;-78
2023/09/27 02:28:25;;;;;;;42.00;28.60;;;;;;;13.27;100.00;99709.85;109405;1252;59077;-78
2023/09/27 02:30:51;;;;;;;62.00;26.10;;;;;;;13.29;100.00;99709.20;109576;1250;58969;-78
2023/09/27 02:33:18;;;;;;;39.10;26.60;;;;;;;13.30;100.00;99712.14;109619;1251;68676;-78
2023/09/27 02:35:45;;;;;;;48.70;26.80;;;;;;;13.31;100.00;99708.85;109606;1251;63733;-76
2023/09/27 02:38:11;;;;;;;70.70;26.50;;;;;;;13.33;100.00;99706.20;109554;1251;58944;-77
2023/09/27 02:40:38;;;;;;;55.40;26.80;;;;;;;13.36;100.00;99707.25;109655;1251;59093;-77
2023/09/27 02:43:05;;;;;;;59.70;25.20;;;;;;;13.39;100.00;99707.45;109565;1253;58956;-77
2023/09/27 02:45:32;;;;;;;75.80;26.70;;;;;;;13.43;100.00;99698.96;109565;1252;60374;-77
2023/09/27 02:47:58;;;;;;;50.80;24.90;;;;;;;13.47;100.00;99699.58;109288;1253;63879;-77
2023/09/27 02:50:25;;;;;;;36.90;25.70;;;;;;;13.48;100.00;99697.90;109583;1251;58954;-77
2023/09/27 02:52:51;;;;;;;55.80;25.20;;;;;;;13.47;100.00;99699.58;109643;1251;58866;-77
2023/09/27 02:55:18;;;;;;;39.00;26.20;;;;;;;13.45;100.00;99700.40;109603;1251;64960;-77
2023/09/27 02:57:50;;;;;;;30.30;25.60;;;;;;;13.43;100.00;99701.07;109613;1253;61256;-77
2023/09/27 03:00:20;;;;;;;40.30;25.40;;;;;;;13.42;100.00;99698.28;109593;1251;62814;-77
2023/09/27 03:02:47;;;;;;;27.90;25.00;;;;;;;13.41;100.00;99695.91;109523;1251;59010;-77
2023/09/27 03:05:14;;;;;;;30.00;25.30;;;;;;;13.37;100.00;99692.73;109662;1252;58989;-77
2023/09/27 03:07:44;;;;;;;27.60;24.90;;;;;;;13.35;100.00;99696.09;109623;1251;65909;-77
2023/09/27 03:10:11;;;;;;;28.30;25.70;;;;;;;13.35;100.00;99700.57;109646;1251;61310;-77
2023/09/27 03:12:39;;;;;;;29.00;26.30;;;;;;;13.33;100.00;99700.13;109613;1252;63667;-77
2023/09/27 03:15:10;;;;;;;28.20;25.60;;;;;;;13.33;100.00;99702.83;109568;1252;59036;-77
2023/09/27 03:17:38;;;;;;;29.10;26.40;;;;;;;13.31;100.00;99701.39;109361;1251;58913;-78
2023/09/27 03:20:07;;;;;;;30.40;27.50;;;;;;;13.29;100.00;99697.41;109298;1253;66031;-77
2023/09/27 03:22:33;;;;;;;29.10;26.20;;;;;;;13.27;100.00;99702.14;109487;1251;60204;-77
2023/09/27 03:25:00;;;;;;;30.10;27.20;;;;;;;13.25;100.00;99704.79;109598;1251;59065;-77
2023/09/27 03:27:26;;;;;;;29.60;27.00;;;;;;;13.21;100.00;99705.90;109277;1251;58998;-77
2023/09/27 03:29:53;;;;;;;27.00;24.50;;;;;;;13.19;100.00;99703.89;109655;1251;59009;-78
2023/09/27 03:32:19;;;;;;;27.40;24.90;;;;;;;13.16;100.00;99707.11;109578;1253;58964;-77
2023/09/27 03:34:46;;;;;;;25.50;23.20;;;;;;;13.13;100.00;99706.78;109631;1251;60025;-77
2023/09/27 03:37:14;;;;;;;28.60;25.70;;;;;;;13.10;100.00;99705.74;109584;1251;63962;-77
2023/09/27 03:39:41;;;;;;;30.10;27.30;;;;;;;13.09;100.00;99708.85;109574;1251;58952;-77
2023/09/27 03:42:07;;;;;;;29.20;26.50;;;;;;;13.09;100.00;99709.71;109627;1251;59064;-78
2023/09/27 03:44:34;;;;;;;30.80;27.80;;;;;;;13.07;100.00;99709.73;109330;1251;59052;-78
2023/09/27 03:47:01;;;;;;;30.50;27.60;;;;;;;13.04;100.00;99707.23;109574;1251;59926;-78
2023/09/27 03:49:28;;;;;;;30.20;27.20;;;;;;;13.04;100.00;99706.50;109572;1251;62509;-77
2023/09/27 03:51:54;;;;;;;29.40;26.60;;;;;;;13.06;100.00;99706.73;109571;1251;59004;-77
2023/09/27 03:54:22;;;;;;;30.30;27.10;;;;;;;13.08;100.00;99710.88;109361;1251;59026;-78
2023/09/27 03:56:48;;;;;;;32.70;27.40;;;;;;;13.08;100.00;99711.81;109574;1251;66045;-77
2023/09/27 03:59:14;;;;;;;29.70;26.70;;;;;;;13.05;100.00;99715.73;109306;1251;59118;-77
2023/09/27 04:01:41;;;;;;;27.90;25.10;;;;;;;13.01;100.00;99720.11;109599;1251;59038;-77
2023/09/27 04:04:08;;;;;;;27.90;25.20;;;;;;;12.97;100.00;99719.84;109311;1251;59027;-77
2023/09/27 04:06:34;;;;;;;28.50;25.70;;;;;;;12.93;100.00;99720.27;109628;1251;59105;-77
2023/09/27 04:09:00;;;;;;;27.70;24.90;;;;;;;12.89;100.00;99717.83;109607;1251;59028;-77
2023/09/27 04:11:27;;;;;;;27.90;25.10;;;;;;;12.86;100.00;99725.67;109672;1251;58944;-77
2023/09/27 04:13:53;;;;;;;25.80;23.20;;;;;;;12.83;100.00;99726.21;109626;1251;59007;-77
2023/09/27 04:16:20;;;;;;;26.80;24.10;;;;;;;12.80;100.00;99722.48;109615;1251;58963;-77
2023/09/27 04:18:46;;;;;;;25.00;22.60;;;;;;;12.77;100.00;99722.52;109643;1253;59170;-77
2023/09/27 04:21:13;;;;;;;27.40;24.70;;;;;;;12.75;100.00;99727.64;109620;1251;58959;-78
2023/09/27 04:23:41;;;;;;;29.90;26.80;;;;;;;12.74;100.00;99730.02;109576;1253;58989;-77
2023/09/27 04:26:09;;;;;;;32.80;29.70;;;;;;;12.73;100.00;99729.70;109548;1252;64088;-78
2023/09/27 04:28:35;;;;;;;42.50;38.70;;;;;;;12.71;100.00;99732.70;109577;1251;59000;-77
2023/09/27 04:31:03;;;;;;;40.90;37.00;;;;;;;12.69;100.00;99734.80;109632;1251;59066;-77
2023/09/27 04:33:30;;;;;;;36.70;33.30;;;;;;;12.67;100.00;99735.64;109637;1251;67245;-77
2023/09/27 04:35:56;;;;;;;33.90;30.60;;;;;;;12.65;100.00;99732.17;109569;1251;58980;-77
2023/09/27 04:38:23;;;;;;;29.50;26.40;;;;;;;12.65;100.00;99730.58;109575;1251;59155;-78
2023/09/27 04:40:51;;;;;;;27.70;25.00;;;;;;;12.65;100.00;99730.63;109615;1251;58942;-77
2023/09/27 04:43:17;;;;;;;27.30;24.60;;;;;;;12.65;100.00;99731.49;109636;1251;59008;-77
2023/09/27 04:45:44;;;;;;;25.70;23.40;;;;;;;12.64;100.00;99732.29;109592;1251;59520;-78
2023/09/27 04:48:10;;;;;;;23.80;21.40;;;;;;;12.62;100.00;99732.94;109597;1252;69715;-77
2023/09/27 04:50:39;;;;;;;24.40;22.00;;;;;;;12.62;100.00;99729.75;109606;1251;62801;-77
2023/09/27 04:53:05;;;;;;;20.80;18.70;;;;;;;12.62;100.00;99730.43;109597;1251;58974;-77
2023/09/27 04:55:32;;;;;;;20.90;19.10;;;;;;;12.65;100.00;99731.83;109638;1254;58995;-78
2023/09/27 04:57:58;;;;;;;19.80;17.40;;;;;;;12.69;100.00;99736.56;109678;1251;59096;-79
2023/09/27 05:00:24;;;;;;;19.10;17.30;;;;;;;12.71;100.00;99737.90;109643;1251;59032;-78
2023/09/27 05:02:51;;;;;;;20.00;18.20;;;;;;;12.80;100.00;99736.10;109583;1251;64551;-78
2023/09/27 05:05:18;;;;;;;20.90;18.90;;;;;;;12.91;100.00;99735.86;109644;1251;58969;-78
2023/09/27 05:07:44;;;;;;;17.80;16.10;;;;;;;13.05;100.00;99739.09;109631;1251;59002;-78
2023/09/27 05:10:12;;;;;;;19.60;17.90;;;;;;;13.16;100.00;99740.51;109527;1251;64657;-78
2023/09/27 05:12:39;;;;;;;21.80;19.60;;;;;;;13.24;100.00;99740.17;109340;1257;59063;-76
2023/09/27 05:15:07;;;;;;;19.50;17.50;;;;;;;13.42;100.00;99744.73;109360;1255;62824;-77
2023/09/27 05:17:34;;;;;;;19.30;17.40;;;;;;;13.64;100.00;99743.59;109332;1254;59597;-78
2023/09/27 05:20:00;;;;;;;20.80;18.90;;;;;;;13.82;100.00;99740.23;109094;1254;59327;-78
2023/09/27 05:22:27;;;;;;;19.50;17.80;;;;;;;14.02;100.00;99744.02;109261;1254;64692;-77
2023/09/27 05:24:53;;;;;;;19.40;17.50;;;;;;;14.21;100.00;99746.15;109346;1257;59486;-78
2023/09/27 05:27:20;;;;;;;18.40;16.80;;;;;;;14.38;100.00;99746.03;109223;1254;59319;-79
2023/09/27 05:29:47;;;;;;;18.50;16.60;;;;;;;14.56;100.00;99745.05;109350;1254;59084;-78
2023/09/27 05:32:14;;;;;;;17.10;15.40;;;;;;;14.73;100.00;99743.69;109291;1256;59000;-78
2023/09/27 05:34:40;;;;;;;16.90;15.30;;;;;;;14.88;100.00;99743.52;109342;1254;59078;-78
2023/09/27 05:37:06;;;;;;;15.70;14.10;;;;;;;15.02;100.00;99744.48;109383;1256;59309;-78
2023/09/27 05:39:33;;;;;;;16.80;13.50;;;;;;;15.17;100.00;99747.66;109355;1254;59135;-78
2023/09/27 05:41:59;;;;;;;15.40;13.90;;;;;;;15.21;100.00;99749.36;109357;1254;58976;-78
2023/09/27 05:44:26;;;;;;;14.60;13.10;;;;;;;15.30;100.00;99750.44;109466;1253;59080;-78
2023/09/27 05:46:52;;;;;;;13.30;12.10;;;;;;;15.34;100.00;99749.80;109423;1253;59024;-78
2023/09/27 05:49:19;;;;;;;13.30;11.90;;;;;;;15.32;100.00;99753.73;109605;1253;58964;-78
2023/09/27 05:51:45;;;;;;;12.30;11.20;;;;;;;15.31;100.00;99759.14;109383;1253;59127;-78
2023/09/27 05:54:12;;;;;;;13.20;12.00;;;;;;;15.32;100.00;99756.90;109510;1253;58984;-77
2023/09/27 05:56:38;;;;;;;13.10;11.90;;;;;;;15.35;100.00;99758.85;109540;1253;58943;-78
2023/09/27 05:59:11;;;;;;;14.50;13.30;;;;;;;15.33;100.00;99763.13;109476;1253;59035;-78
2023/09/27 06:01:39;;;;;;;14.50;13.10;;;;;;;15.31;100.00;99764.84;109558;1253;59854;-78
2023/09/27 06:04:06;;;;;;;13.60;12.50;;;;;;;15.34;100.00;99764.80;109480;1253;63869;-78
2023/09/27 06:06:37;;;;;;;13.60;12.40;;;;;;;15.38;100.00;99763.45;109405;1252;59424;-77
2023/09/27 06:09:09;;;;;;;14.30;13.10;;;;;;;15.41;100.00;99764.52;109402;1253;59057;-78
2023/09/27 06:11:36;;;;;;;15.00;13.50;;;;;;;15.46;100.00;99765.54;109519;1253;67487;-77
2023/09/27 06:14:02;;;;;;;16.40;13.20;;;;;;;15.52;100.00;99760.11;109524;1253;60412;-78
2023/09/27 06:16:29;;;;;;;13.50;12.20;;;;;;;15.55;100.00;99760.54;109525;1253;64039;-77
2023/09/27 06:18:55;;;;;;;12.40;11.20;;;;;;;15.60;100.00;99762.55;109541;1253;58878;-77
2023/09/27 06:21:22;;;;;;;14.40;13.00;;;;;;;15.65;100.00;99767.16;109529;1253;58988;-78
2023/09/27 06:23:48;;;;;;;13.50;12.20;;;;;;;15.69;100.00;99769.74;109491;1253;59026;-78
2023/09/27 06:26:15;;;;;;;13.50;12.20;;;;;;;15.72;100.00;99772.01;109502;1253;58891;-78
2023/09/27 06:28:41;;;;;;;13.00;11.80;;;;;;;15.73;100.00;99773.91;109491;1251;64087;-77
2023/09/27 06:31:09;;;;;;;14.40;11.50;;;;;;;15.72;100.00;99777.77;109583;1251;58984;-78
2023/09/27 06:33:39;;;;;;;13.00;11.80;;;;;;;15.73;100.00;99782.48;109594;1251;59033;-78
2023/09/27 06:36:07;;;;;;;13.00;11.70;;;;;;;15.79;100.00;99782.27;109662;1251;66308;-77
2023/09/27 06:38:34;;;;;;;13.40;12.10;;;;;;;15.86;100.00;99784.61;109415;1251;59516;-77
2023/09/27 06:41:01;;;;;;;12.60;11.50;;;;;;;15.93;100.00;99782.23;109574;1251;63735;-77
2023/09/27 06:43:29;;;;;;;15.10;11.70;;;;;;;16.02;100.00;99783.22;109467;1251;146543;-78
2023/09/27 06:45:56;;;;;;;13.00;11.70;;;;;;;16.10;100.00;99788.14;109645;1251;59018;-78
2023/09/27 06:48:26;;;;;;;12.90;11.60;;;;;;;16.18;100.00;99790.88;109625;1251;64841;-78
2023/09/27 06:50:52;;;;;;;12.10;11.00;;;;;;;16.26;100.00;99790.63;109612;1251;60328;-77
2023/09/27 06:53:19;;;;;;;12.70;11.50;;;;;;;16.34;100.00;99787.92;109504;1251;59059;-77
2023/09/27 06:55:45;;;;;;;15.00;12.30;;;;;;;16.44;100.00;99790.46;109604;1251;58951;-77
2023/09/27 06:58:13;;;;;;;12.80;11.60;;;;;;;16.55;100.00;99788.73;109647;1252;58979;-77
2023/09/27 07:00:41;;;;;;;13.20;11.90;;;;;;;16.65;100.00;99788.65;109613;1251;66061;-79
2023/09/27 07:03:07;;;;;;;12.60;11.10;;;;;;;16.75;100.00;99790.40;109577;1251;59901;-79
2023/09/27 07:05:35;;;;;;;13.10;11.80;;;;;;;16.83;100.00;99791.39;109572;1251;64132;-78
2023/09/27 07:08:03;;;;;;;12.20;11.10;;;;;;;16.92;100.00;99793.20;109565;1251;58983;-78
2023/09/27 07:10:29;;;;;;;11.70;10.60;;;;;;;17.01;100.00;99791.95;109588;1251;58879;-78
2023/09/27 07:12:56;;;;;;;13.20;11.40;;;;;;;17.09;100.00;99797.95;109626;1251;59023;-78
2023/09/27 07:15:22;;;;;;;11.70;10.60;;;;;;;17.16;100.00;99799.14;109509;1251;60126;-79
2023/09/27 07:17:49;;;;;;;13.60;11.90;;;;;;;17.24;100.00;99798.52;109560;1251;59010;-80
2023/09/27 07:20:27;;;;;;;12.40;11.20;;;;;;;17.32;100.00;99800.48;109591;1251;58947;-79
2023/09/27 07:22:54;;;;;;;12.00;10.90;;;;;;;17.44;100.00;99804.23;109580;1251;58994;-79
2023/09/27 07:25:21;;;;;;;11.30;10.20;;;;;;;17.53;100.00;99803.25;109596;1251;64903;-79
2023/09/27 07:27:49;;;;;;;13.50;11.10;;;;;;;17.63;100.00;99806.98;109549;1251;60511;-79
2023/09/27 07:30:23;;;;;;;13.20;10.90;;;;;;;17.72;100.00;99810.66;109513;1253;63861;-78
2023/09/27 07:32:51;;;;;;;12.30;10.90;;;;;;;17.83;100.00;99814.09;109560;1253;58963;-80
2023/09/27 07:35:18;;;;;;;11.60;10.40;;;;;;;17.94;100.00;99815.30;109460;1251;59102;-79
2023/09/27 07:37:45;;;;;;;10.90;10.00;;;;;;;18.05;100.00;99813.50;109561;1252;66068;-80
2023/09/27 07:40:13;;;;;;;11.20;10.10;;;;;;;18.15;100.00;99816.46;109571;1253;59818;-80
2023/09/27 07:42:44;;;;;;;10.80;9.80;;;;;;;18.24;100.00;99815.64;109367;1254;62506;-79
2023/09/27 07:45:25;;;;;;;12.80;11.40;;;;;;;18.34;100.00;99817.02;109184;1253;59077;-79
2023/09/27 07:47:53;;;;;;;11.60;10.10;;;;;;;18.41;100.00;99819.21;109389;1254;59008;-79
2023/09/27 07:50:22;;;;;;;11.50;10.40;;;;;;;18.50;100.00;99811.95;109334;1254;66048;-79
2023/09/27 07:52:49;;;;;;;12.90;11.60;;;;;;;18.62;100.00;99815.59;109173;1261;59136;-79
2023/09/27 07:55:17;;;;;;;11.80;10.80;;;;;;;18.73;100.00;99817.93;109374;1254;59098;-79
2023/09/27 07:57:43;;;;;;;11.60;10.30;;;;;;;18.81;100.00;99818.70;109220;1254;59065;-79
2023/09/27 08:00:12;;;;;;;14.00;9.80;;;;;;;18.88;100.00;99819.70;109324;1254;58898;-79
2023/09/27 08:02:43;;;;;;;10.40;9.30;;;;;;;18.96;100.00;99820.98;109174;1254;64870;-79
2023/09/27 08:05:09;;;;;;;11.00;9.50;;;;;;;19.06;100.00;99821.50;109254;1254;59187;-78
2023/09/27 08:07:37;;;;;;;10.60;9.40;;;;;;;19.18;100.00;99820.83;109364;1254;64968;-77
2023/09/27 08:10:06;;;;;;;11.50;9.20;;;;;;;19.30;100.00;99824.93;109177;1254;59007;-79
2023/09/27 08:12:34;;;;;;;10.70;9.70;;;;;;;19.41;100.00;99830.42;109170;1254;59070;-78
2023/09/27 08:15:03;;;;;;;9.70;8.80;;;;;;;19.50;100.00;99829.08;109065;1253;65779;-78
2023/09/27 08:17:31;;;;;;;10.70;8.80;;;;;;;19.60;100.00;99829.45;109380;1254;60028;-78
2023/09/27 08:19:59;;;;;;;9.80;8.60;;;;;;;19.70;100.00;99831.95;109428;1251;62670;-78
2023/09/27 08:22:26;;;;;;;10.10;8.60;;;;;;;19.81;100.00;99829.15;109523;1251;58999;-78
2023/09/27 08:24:52;;;;;;;12.50;8.60;;;;;;;19.92;100.00;99830.26;109616;1251;59242;-78
2023/09/27 08:27:18;;;;;;;11.60;8.50;;;;;;;20.04;100.00;99827.41;109597;1251;59306;-78
2023/09/27 08:29:45;;;;;;;9.90;8.90;;;;;;;20.16;100.00;99828.30;109632;1251;59403;-77
2023/09/27 08:32:12;;;;;;;11.20;8.40;;;;;;;20.30;100.00;99830.07;109660;1251;64175;-78
2023/09/27 08:34:39;;;;;;;10.80;8.10;;;;;;;20.42;100.00;99831.98;109621;1249;58956;-78
2023/09/27 08:37:06;;;;;;;8.50;7.70;;;;;;;20.53;100.00;99835.81;109657;1251;59002;-77
2023/09/27 08:39:32;;;;;;;12.10;8.20;;;;;;;20.62;100.00;99836.73;109705;1249;59435;-78
2023/09/27 08:41:59;;;;;;;9.50;8.60;;;;;;;20.72;100.00;99833.83;109722;1250;59830;-78
2023/09/27 08:44:26;;;;;;;10.40;8.10;;;;;;;20.81;100.00;99831.46;109671;1250;62623;-78
2023/09/27 08:46:55;;;;;;;9.80;7.80;;;;;;;20.91;100.00;99828.00;109685;1249;59838;-78
2023/09/27 08:49:23;;;;;;;10.80;8.30;;;;;;;21.00;100.00;99828.77;109613;1249;59026;-78
2023/09/27 08:51:52;;;;;;;9.70;7.80;;;;;;;21.09;100.00;99832.98;109575;1250;66344;-78
2023/09/27 08:54:21;;;;;;;9.60;8.40;;;;;;;21.19;100.00;99832.66;109543;1250;60411;-78
2023/09/27 08:56:51;;;;;;;9.90;8.80;;;;;;;21.30;100.00;99834.46;109691;1250;64019;-78
2023/09/27 08:59:19;;;;;;;12.20;8.30;;;;;;;21.40;100.00;99830.83;109685;1249;59079;-77
2023/09/27 09:01:47;;;;;;;10.60;7.70;;;;;;;21.50;100.00;99828.83;109710;1251;58947;-78
2023/09/27 09:04:14;;;;;;;9.00;7.90;;;;;;;21.59;100.00;99832.96;109731;1250;66160;-77
2023/09/27 09:06:41;;;;;;;11.10;8.00;;;;;;;21.68;100.00;99829.68;109733;1250;68710;-78
2023/09/27 09:09:11;;;;;;;10.90;8.00;;;;;;;21.81;100.00;99826.92;109551;1251;65061;-78
2023/09/27 09:11:47;;;;;;;9.20;7.80;;;;;;;21.93;100.00;99824.14;109607;1250;58966;-79
2023/09/27 09:14:22;;;;;;;11.50;6.70;;;;;;;22.02;100.00;99824.77;109595;1251;59037;-79
2023/09/27 09:16:53;;;;;;;9.30;8.20;;;;;;;22.14;100.00;99820.68;109587;1250;65743;-79
2023/09/27 09:19:25;;;;;;;8.50;6.90;;;;;;;22.27;100.00;99816.87;109533;1254;60195;-79
2023/09/27 09:22:00;;;;;;;9.20;7.60;;;;;;;22.37;100.00;99812.06;109560;1249;62683;-78
2023/09/27 09:24:27;;;;;;;12.10;7.80;;;;;;;22.48;100.00;99810.94;109782;1251;58931;-78
2023/09/27 09:27:03;;;;;;;9.60;7.50;;;;;;;22.62;100.00;99805.60;109788;1250;58835;-78
2023/09/27 09:29:48;;;;;;;7.40;6.70;;;;;;;22.73;100.00;99803.57;109685;1251;66211;-78
2023/09/27 09:32:25;;;;;;;9.70;7.80;;;;;;;22.84;100.00;99802.44;109653;1250;61431;-78
2023/09/27 09:34:53;;;;;;;7.50;6.80;;;;;;;22.96;100.00;99801.52;109373;1249;64137;-78
2023/09/27 09:37:27;;;;;;;9.80;7.10;;;;;;;23.09;100.00;99804.02;109535;1252;59019;-78
2023/09/27 09:40:12;;;;;;;10.40;7.00;;;;;;;23.20;100.00;99802.23;109282;1249;59120;-78
2023/09/27 09:42:39;;;;;;;8.30;6.50;;;;;;;23.30;100.00;99796.62;109547;1253;65066;-78
2023/09/27 09:45:06;;;;;;;8.30;7.50;;;;;;;23.39;100.00;99796.37;109675;1250;58996;-78
2023/09/27 09:47:35;;;;;;;8.70;6.00;;;;;;;23.49;100.00;99797.29;109704;1250;62479;-78
2023/09/27 09:50:08;;;;;;;7.80;6.70;;;;;;;23.61;100.00;99803.98;109440;1250;59011;-78
2023/09/27 09:52:38;;;;;;;8.00;6.40;;;;;;;23.70;100.00;99806.32;109706;1250;58936;-78
2023/09/27 09:55:11;;;;;;;7.90;5.80;;;;;;;23.79;100.00;99808.94;109599;1251;65837;-78
2023/09/27 09:57:41;;;;;;;7.70;6.00;;;;;;;23.90;100.00;99808.81;109563;1249;60169;-78
2023/09/27 10:00:16;;;;;;;8.70;6.40;;;;;;;23.99;100.00;99807.50;109629;1251;63783;-78
2023/09/27 10:03:00;;;;;;;8.10;7.50;;;;;;;24.07;100.00;99806.61;109315;1254;59463;-78
2023/09/27 10:05:37;;;;;;;7.20;6.50;;;;;;;24.11;100.00;99804.54;109437;1254;59039;-79
2023/09/27 10:08:05;;;;;;;7.00;6.40;;;;;;;24.12;100.00;99806.21;109088;1257;65876;-78
2023/09/27 10:10:33;;;;;;;10.10;5.90;;;;;;;24.18;100.00;99805.24;109059;1257;59049;-78
2023/09/27 10:13:03;;;;;;;7.80;7.00;;;;;;;24.28;100.00;99803.55;109091;1256;64099;-78
2023/09/27 10:15:32;;;;;;;;;;;;;;;24.36;100.00;99804.33;109207;1257;59044;-79
2023/09/27 10:18:23;;;;;;;8.20;7.10;;;;;;;24.40;100.00;99803.53;109236;1257;59213;-79
2023/09/27 10:21:05;;;;;;;8.60;7.70;;;;;;;24.44;100.00;99798.73;109199;1256;64504;-79
2023/09/27 10:23:46;;;;;;;8.60;7.70;;;;;;;24.47;100.00;99799.27;109201;1256;59107;-79
2023/09/27 10:26:20;;;;;;;7.70;7.00;;;;;;;24.53;100.00;99798.02;109209;1256;64240;-79
2023/09/27 10:29:24;;;;;;;9.90;7.90;;;;;;;24.60;100.00;99790.14;109040;1257;58954;-80
2023/09/27 10:31:58;;;;;;;8.40;7.00;;;;;;;24.70;100.00;99786.61;109156;1257;58985;-79
2023/09/27 10:34:36;;;;;;;8.30;6.90;;;;;;;24.79;100.00;99787.33;109384;1253;65942;-77
2023/09/27 10:37:02;;;;;;;8.20;6.40;;;;;;;24.79;100.00;99781.48;109439;1254;60266;-79
2023/09/27 10:39:29;;;;;;;7.60;6.80;;;;;;;24.81;100.00;99779.39;109522;1250;59847;-79
2023/09/27 10:41:56;;;;;;;6.60;6.00;;;;;;;24.85;100.00;99777.87;109402;1250;58986;-80
2023/09/27 10:44:27;;;;;;;8.80;6.90;;;;;;;24.91;100.00;99776.83;109636;1250;59067;-79
2023/09/27 10:46:54;;;;;;;8.30;6.90;;;;;;;24.97;100.00;99775.54;109673;1250;66059;-79
2023/09/27 10:49:30;;;;;;;8.30;6.70;;;;;;;25.05;100.00;99775.10;109549;1249;60110;-79
2023/09/27 10:51:57;;;;;;;10.00;6.40;;;;;;;25.07;100.00;99774.48;109728;1250;63785;-79
2023/09/27 10:54:24;;;;;;;7.20;6.40;;;;;;;25.09;100.00;99776.90;109761;1249;59076;-79
2023/09/27 10:56:56;;;;;;;8.40;6.50;;;;;;;25.13;100.00;99776.60;109667;1250;58993;-79
2023/09/27 10:59:24;;;;;;;9.70;6.40;;;;;;;25.18;100.00;99771.36;109449;1250;64423;-79
2023/09/27 11:01:51;;;;;;;9.70;6.80;;;;;;;25.21;100.00;99765.83;109601;1250;61126;-80
2023/09/27 11:04:25;;;;;;;6.90;5.80;;;;;;;25.23;100.00;99764.32;109595;1249;62852;-77
2023/09/27 11:06:53;;;;;;;6.90;6.20;;;;;;;25.27;100.00;99759.20;109573;1251;58995;-79
2023/09/27 11:09:19;;;;;;;8.20;7.20;;;;;;;25.35;100.00;99759.61;109633;1250;59315;-79